FOON/MVB METAR and TAF weather

Enter ICAO airport designator
Station Type Date Time Source
FOON METAR 2019/04/25 18:00 UTC NOAA

FOON 251800Z 24003KT 190V290 8000 SCT010 OVC030 27/24 Q1011


Station Type Date Time Source
FOON Decoded METAR 2019/04/25 18:00 UTC NOAA

Franceville / Mvengue, Gabon (FOON) 01-39S 013-26E
Apr 25, 2019 - 02:00 PM EDT / 2019.04.25 1800 UTC
Wind: from the WSW (240 degrees) at 3 MPH (3 KT) (direction variable):0
Visibility: 4 mile(s):0
Sky conditions: overcast
Temperature: 80 F (27 C)
Dew Point: 75 F (24 C)
Relative Humidity: 83%
Pressure (altimeter): 29.85 in. Hg (1011 hPa)
ob: FOON 251800Z 24003KT 190V290 8000 SCT010 OVC030 27/24 Q1011
cycle: 18

Station Type Date Time Source
FOON TAF 2012/02/17 18:21 UTC NOAA

TAF TAF FOON 151600Z 1518/1618 20004KT 9999 BKN006
TEMPO 1603/1607 0200 FG OVC002
BECMG 1612/1614 TS SCT015 FEW020CB BKN030

Example: see airport list